Manilla, Indiana
Current Conditions -  °F | °C
As of 6:53 PM on Tuesday 25 Nov 2014 (Local Time) from KGEZ Reporting Station
Overcast Overcast  
Wind Chill: -3°   Ceiling: 1900
Heat Index:   Visibility: 10mi
Dew Point: -5°   Wind: 5mph
Humidity: 69%   Direction: 330°NNW
Pressure: 30.18"   Gusts: NA
Location:  39.57°N, 85.62°W
Report Text: KGEZ 252353Z AUTO 33004KT 10SM OVC019 00/M05 A3018 RMK AO2 SLP227 T00001050 10022 20000 53012
Loading
Personal Weather Stations






























Interactive Weather Map New forecast layout! Learn more

10-Day Weather Forecast

Advertisements
Track Severe Weather on mobile